Flight Track Log - Related Links

Times and Time Zones

All times are in EST time to prevent confusion due to time zone crossing. See the N52944 flight status page for this flight to view local times or setup timezone preferences in your user account.

Time Position Orientation Groundspeed Altitude Reporting Facility
EST Latitude Longitude Course Direction KTS MPH feet Rate Location/Type
Sat 09:24:00 PM 35.3303 -78.8987 256° West  Level Estimated
Sat 09:25:00 PM 35.3239 -78.9332 257° West  Level FlightAware Approximate
Sat 09:26:00 PM 35.3174 -78.9677 257° West  Level FlightAware Approximate
Sat 09:27:00 PM 35.3109 -79.0023 257° West  Level FlightAware Approximate
Sat 09:28:00 PM 35.3044 -79.0368 257° West  Level FlightAware Approximate
Sat 09:29:00 PM 35.2979 -79.0713 257° West  Level FlightAware Approximate
Sat 09:30:00 PM 35.2914 -79.1058 257° West  Level FlightAware Approximate
Sat 09:31:00 PM 35.2848 -79.1403 257° West  Level FlightAware Approximate
Sat 09:32:00 PM 35.2783 -79.1748 257° West  Level FlightAware Approximate
Sat 09:33:00 PM 35.2718 -79.2093 257° West  Level FlightAware Approximate
Sat 09:34:00 PM 35.2652 -79.2438 257° West  Level FlightAware Approximate
Sat 09:35:00 PM 35.2586 -79.2783 257° West  Level FlightAware Approximate
Sat 09:36:00 PM 35.2520 -79.3128 257° West  Level FlightAware Approximate
Sat 09:37:00 PM 35.2454 -79.3473 257° West  Level FlightAware Approximate
Sat 09:38:00 PM 35.2388 -79.3817 257° West  Level FlightAware Approximate
Sat 09:39:00 PM 35.2322 -79.4162 257° West  Level FlightAware Approximate
Sat 09:40:00 PM 35.2210 -79.4488 246° West  Level Estimated
Sat 09:41:00 PM 35.2105 -79.4818 249° West  Level FlightAware Approximate
Sat 09:42:00 PM 35.2000 -79.5147 249° West  Level FlightAware Approximate
Sat 09:43:00 PM 35.1895 -79.5477 249° West  Level FlightAware Approximate
Sat 09:44:00 PM 35.1789 -79.5807 249° West  Level FlightAware Approximate
Sat 09:45:00 PM 35.1684 -79.6136 249° West  Level FlightAware Approximate
Sat 09:46:00 PM 35.1579 -79.6466 249° West  Level FlightAware Approximate
Sat 09:47:00 PM 35.1474 -79.6795 249° West  Level FlightAware Approximate
Sat 09:48:00 PM 35.1368 -79.7124 249° West  Level FlightAware Approximate
Sat 09:49:00 PM 35.1262 -79.7453 249° West  Level FlightAware Approximate
Sat 09:50:00 PM 35.1157 -79.7782 249° West  Level FlightAware Approximate
Sat 09:51:00 PM 35.1051 -79.8111 249° West  Level FlightAware Approximate
Sat 09:52:00 PM 35.0945 -79.8440 249° West  Level FlightAware Approximate
Sat 09:53:00 PM 35.0839 -79.8769 249° West  Level FlightAware Approximate
Sat 09:54:00 PM 35.0722 -79.9092 245° Southwest  Level Estimated
Sat 09:55:00 PM 35.0602 -79.9413 246° West  Level FlightAware Approximate
Sat 09:55:27 PM 35.1169 -79.8492 245° Southwest 100 115 5,900  Level Atlanta Center
Sat 09:55:58 PM 35.1111 -79.8622 241° Southwest 101 116 5,900 62 Level Atlanta Center
Sat 09:56:00 PM 35.0482 -79.9735 246° West  Level FlightAware Approximate
Sat 09:57:00 PM 35.0362 -80.0056 245° Southwest  Level FlightAware Approximate
Sat 09:57:04 PM 35.0956 -79.9011 244° Southwest 99 114 6,000  Level Atlanta Center
Sat 09:58:00 PM 35.0242 -80.0377 245° Southwest  Level FlightAware Approximate
Sat 09:58:05 PM 35.0861 -79.9294 248° West 97 112 6,000  Level Atlanta Center
Sat 09:58:53 PM 35.0744 -79.9528 239° Southwest 98 113 6,000  Level Atlanta Center
Sat 09:59:00 PM 35.0121 -80.0698 245° Southwest  Level FlightAware Approximate
Sat 10:00:00 PM 35.0001 -80.1019 245° Southwest  Level FlightAware Approximate
Sat 10:00:00 PM 35.0631 -79.9864 248° West 100 115 6,000  Level Atlanta Center
Sat 10:01:01 PM 35.0494 -80.0175 242° Southwest 102 117 6,000  Level Atlanta Center
Sat 10:02:07 PM 35.0381 -80.0511 248° West 99 114 6,000  Level Atlanta Center
Sat 10:03:08 PM 35.0264 -80.0819 245° Southwest 99 114 6,000 -104 Level Atlanta Center
Sat 10:04:02 PM 35.0169 -80.1103 248° West 101 116 5,800 -165 Descending Atlanta Center
Sat 10:04:57 PM 35.0033 -80.1389 240° Southwest 106 122 5,700 -259 Descending Atlanta Center
Sat 10:05:58 PM 34.9897 -80.1750 245° Southwest 114 131 5,300 -425 Descending Atlanta Center
Sat 10:07:04 PM 34.9744 -80.2136 244° Southwest 114 131 4,800 -496 Descending Atlanta Center
Sat 10:08:11 PM 34.9628 -80.2497 248° West 103 119 4,200 -422 Descending Atlanta Center
Sat 10:09:12 PM 34.9492 -80.2808 242° Southwest 100 115 3,900 -365 Descending Atlanta Center
Sat 10:10:06 PM 34.9375 -80.3042 239° Southwest 96 110 3,500 -365 Descending Atlanta Center
Sat 10:11:07 PM 34.9258 -80.3375 247° West 100 115 3,200 -224 Descending Atlanta Center
Sat 10:12:20 PM 34.9103 -80.3736 242° Southwest 97 112 3,000 -149 Descending Atlanta Center
Sat 10:13:08 PM 34.9067 -80.3942 258° West 86 99 2,900 -58 Descending Atlanta Center
Sat 10:14:03 PM 34.9014 -80.4222 257° West 84 97 2,900 41 Level Atlanta Center
Sat 10:15:34 PM 34.8900 -80.4633 251° West 83 96 3,000 43 Climbing Atlanta Center
Sat 10:16:22 PM 34.8844 -80.4864 254° West 89 102 3,000 55 Level Atlanta Center
Sat 10:17:23 PM 34.8789 -80.5144 256° West 90 104 3,100 45 Climbing Atlanta Center
Sat 10:18:36 PM 34.8675 -80.5478 247° West 92 106 3,100 -45 Level Atlanta Center
Sat 10:19:36 PM 34.8619 -80.5783 258° West 92 106 3,000 -198 Descending Atlanta Center
Sat 10:20:07 PM 34.8561 -80.5939 245° Southwest 89 102 2,800 -310 Descending Atlanta Center
Sat 10:21:32 PM 34.8403 -80.6197 233° Southwest 61 70 2,400 -198 Descending Atlanta Center
Sat 10:22:08 PM 34.8364 -80.6325 250° West 61 70 2,400 50 Level Atlanta Center
Sat 10:23:33 PM 34.8244 -80.6558 238° Southwest 60 69 2,500 -43 Climbing Atlanta Center
Sat 10:24:28 PM 34.8167 -80.6714 239° Southwest 53 61 2,300 -198 Descending Atlanta Center
Sat 10:25:34 PM 34.8086 -80.6869 238° Southwest 53 61 2,100 -94 Descending Atlanta Center
Sat 10:26:35 PM 34.8006 -80.6997 232° Southwest 54 62 2,100  Level Atlanta Center
Sat 10:27:18 PM 34.7928 -80.7128 234° Southwest 54 62 2,100  Level Atlanta Center
Sat 10:28:18 PM 34.7869 -80.7281 245° Southwest 54 62 2,100  Level Atlanta Center
Sat 10:29:13 PM 34.7789 -80.7411 233° Southwest 54 62 2,100  Level Atlanta Center
Sat 10:30:08 PM 34.7711 -80.7592 242° Southwest 56 64 2,100 -157 Level Atlanta Center
Sat 10:31:08 PM 34.7653 -80.7744 245° Southwest 54 62 1,800 -331 Descending Atlanta Center
Sat 10:32:15 PM 34.7553 -80.7925 236° Southwest 59 68 1,400 -358 Descending Atlanta Center

Login

Don't have an account? Register now (free) for customized features, flight alerts, and more!